sensor_id;sensor_type;location;lat;lon;timestamp;temperature;humidity
77277;DHT22;66330;52.166;9.978;2023-04-08T00:02:11;8.80;59.00
77277;DHT22;66330;52.166;9.978;2023-04-08T00:04:36;8.80;59.50
77277;DHT22;66330;52.166;9.978;2023-04-08T00:07:02;8.80;59.30
77277;DHT22;66330;52.166;9.978;2023-04-08T00:09:27;8.80;59.30
77277;DHT22;66330;52.166;9.978;2023-04-08T00:11:53;8.70;59.00
77277;DHT22;66330;52.166;9.978;2023-04-08T00:14:18;8.80;59.50
77277;DHT22;66330;52.166;9.978;2023-04-08T00:16:44;8.80;59.50
77277;DHT22;66330;52.166;9.978;2023-04-08T00:19:09;8.80;59.60
77277;DHT22;66330;52.166;9.978;2023-04-08T00:21:35;8.80;59.60
77277;DHT22;66330;52.166;9.978;2023-04-08T00:24:01;8.80;59.60
77277;DHT22;66330;52.166;9.978;2023-04-08T00:26:26;8.80;59.20
77277;DHT22;66330;52.166;9.978;2023-04-08T00:28:52;9.30;60.10
77277;DHT22;66330;52.166;9.978;2023-04-08T00:31:18;9.20;60.20
77277;DHT22;66330;52.166;9.978;2023-04-08T00:33:43;8.70;59.80
77277;DHT22;66330;52.166;9.978;2023-04-08T00:36:09;8.70;59.80
77277;DHT22;66330;52.166;9.978;2023-04-08T00:38:34;8.70;60.00
77277;DHT22;66330;52.166;9.978;2023-04-08T00:41:00;8.70;60.50
77277;DHT22;66330;52.166;9.978;2023-04-08T00:43:25;8.70;60.70
77277;DHT22;66330;52.166;9.978;2023-04-08T00:45:51;8.60;60.10
77277;DHT22;66330;52.166;9.978;2023-04-08T00:48:16;8.60;60.90
77277;DHT22;66330;52.166;9.978;2023-04-08T00:50:43;8.60;60.10
77277;DHT22;66330;52.166;9.978;2023-04-08T00:53:08;8.60;60.60
77277;DHT22;66330;52.166;9.978;2023-04-08T00:55:34;8.60;61.70
77277;DHT22;66330;52.166;9.978;2023-04-08T00:58:00;8.60;61.90
77277;DHT22;66330;52.166;9.978;2023-04-08T01:00:28;8.60;62.10
77277;DHT22;66330;52.166;9.978;2023-04-08T01:03:04;8.60;62.20
77277;DHT22;66330;52.166;9.978;2023-04-08T01:06:22;8.60;62.50
77277;DHT22;66330;52.166;9.978;2023-04-08T01:08:28;8.60;62.10
77277;DHT22;66330;52.166;9.978;2023-04-08T01:10:59;8.60;62.50
77277;DHT22;66330;52.166;9.978;2023-04-08T01:13:28;8.50;61.80
77277;DHT22;66330;52.166;9.978;2023-04-08T01:15:55;8.60;62.90
77277;DHT22;66330;52.166;9.978;2023-04-08T01:18:21;8.50;63.00
77277;DHT22;66330;52.166;9.978;2023-04-08T01:20:49;8.50;63.20
77277;DHT22;66330;52.166;9.978;2023-04-08T01:23:36;8.50;63.30
77277;DHT22;66330;52.166;9.978;2023-04-08T01:26:03;8.50;63.40
77277;DHT22;66330;52.166;9.978;2023-04-08T01:28:30;8.90;63.90
77277;DHT22;66330;52.166;9.978;2023-04-08T01:30:58;8.80;63.90
77277;DHT22;66330;52.166;9.978;2023-04-08T01:33:24;9.10;64.10
77277;DHT22;66330;52.166;9.978;2023-04-08T01:35:52;8.50;63.70
77277;DHT22;66330;52.166;9.978;2023-04-08T01:38:19;8.40;63.80
77277;DHT22;66330;52.166;9.978;2023-04-08T01:40:46;8.40;63.90
77277;DHT22;66330;52.166;9.978;2023-04-08T01:43:14;8.40;64.00
77277;DHT22;66330;52.166;9.978;2023-04-08T01:45:42;8.40;64.10
77277;DHT22;66330;52.166;9.978;2023-04-08T01:48:08;8.40;64.30
77277;DHT22;66330;52.166;9.978;2023-04-08T01:50:34;8.40;64.50
77277;DHT22;66330;52.166;9.978;2023-04-08T01:53:02;8.40;63.90
77277;DHT22;66330;52.166;9.978;2023-04-08T01:55:29;8.40;64.80
77277;DHT22;66330;52.166;9.978;2023-04-08T01:57:59;8.50;65.00
77277;DHT22;66330;52.166;9.978;2023-04-08T02:00:27;8.50;65.10
77277;DHT22;66330;52.166;9.978;2023-04-08T02:02:53;8.90;65.70
77277;DHT22;66330;52.166;9.978;2023-04-08T02:05:20;8.50;64.30
77277;DHT22;66330;52.166;9.978;2023-04-08T02:07:47;8.50;65.10
77277;DHT22;66330;52.166;9.978;2023-04-08T02:10:12;8.70;65.30
77277;DHT22;66330;52.166;9.978;2023-04-08T02:12:38;8.50;64.80
77277;DHT22;66330;52.166;9.978;2023-04-08T02:15:04;8.50;65.10
77277;DHT22;66330;52.166;9.978;2023-04-08T02:17:45;8.50;65.20
77277;DHT22;66330;52.166;9.978;2023-04-08T02:22:47;8.60;65.40
77277;DHT22;66330;52.166;9.978;2023-04-08T02:25:16;8.60;65.40
77277;DHT22;66330;52.166;9.978;2023-04-08T02:27:43;8.60;65.50
77277;DHT22;66330;52.166;9.978;2023-04-08T02:30:10;8.60;66.20
77277;DHT22;66330;52.166;9.978;2023-04-08T02:32:37;8.60;65.50
77277;DHT22;66330;52.166;9.978;2023-04-08T02:35:04;8.60;64.80
77277;DHT22;66330;52.166;9.978;2023-04-08T02:37:32;8.60;65.30
77277;DHT22;66330;52.166;9.978;2023-04-08T02:39:59;9.20;66.30
77277;DHT22;66330;52.166;9.978;2023-04-08T02:42:24;8.70;65.80
77277;DHT22;66330;52.166;9.978;2023-04-08T02:44:50;8.70;65.80
77277;DHT22;66330;52.166;9.978;2023-04-08T02:47:16;8.70;65.80
77277;DHT22;66330;52.166;9.978;2023-04-08T02:49:42;8.70;65.90
77277;DHT22;66330;52.166;9.978;2023-04-08T02:52:07;8.70;65.90
77277;DHT22;66330;52.166;9.978;2023-04-08T02:54:33;8.70;65.80
77277;DHT22;66330;52.166;9.978;2023-04-08T02:56:58;8.70;65.80
77277;DHT22;66330;52.166;9.978;2023-04-08T02:59:24;8.70;65.80
77277;DHT22;66330;52.166;9.978;2023-04-08T03:01:50;8.70;64.80
77277;DHT22;66330;52.166;9.978;2023-04-08T03:04:15;8.70;65.70
77277;DHT22;66330;52.166;9.978;2023-04-08T03:06:41;8.70;65.70
77277;DHT22;66330;52.166;9.978;2023-04-08T03:09:06;8.70;65.70
77277;DHT22;66330;52.166;9.978;2023-04-08T03:11:32;8.80;65.80
77277;DHT22;66330;52.166;9.978;2023-04-08T03:13:58;8.70;65.70
77277;DHT22;66330;52.166;9.978;2023-04-08T03:16:23;9.30;66.00
77277;DHT22;66330;52.166;9.978;2023-04-08T03:18:49;8.70;65.80
77277;DHT22;66330;52.166;9.978;2023-04-08T03:21:15;8.70;65.80
77277;DHT22;66330;52.166;9.978;2023-04-08T03:23:41;8.70;65.80
77277;DHT22;66330;52.166;9.978;2023-04-08T03:26:07;8.80;65.60
77277;DHT22;66330;52.166;9.978;2023-04-08T03:28:32;8.80;65.90
77277;DHT22;66330;52.166;9.978;2023-04-08T03:30:58;8.70;65.70
77277;DHT22;66330;52.166;9.978;2023-04-08T03:33:25;8.70;65.00
77277;DHT22;66330;52.166;9.978;2023-04-08T03:35:50;8.70;65.80
77277;DHT22;66330;52.166;9.978;2023-04-08T03:38:16;8.70;65.90
77277;DHT22;66330;52.166;9.978;2023-04-08T03:40:41;8.70;66.10
77277;DHT22;66330;52.166;9.978;2023-04-08T03:43:07;8.70;66.20
77277;DHT22;66330;52.166;9.978;2023-04-08T03:45:33;8.70;66.20
77277;DHT22;66330;52.166;9.978;2023-04-08T03:47:58;8.70;65.30
77277;DHT22;66330;52.166;9.978;2023-04-08T03:50:24;8.70;66.50
77277;DHT22;66330;52.166;9.978;2023-04-08T03:52:50;8.70;66.50
77277;DHT22;66330;52.166;9.978;2023-04-08T03:55:15;8.70;66.10
77277;DHT22;66330;52.166;9.978;2023-04-08T03:57:42;8.60;66.70
77277;DHT22;66330;52.166;9.978;2023-04-08T04:00:08;8.70;66.80
77277;DHT22;66330;52.166;9.978;2023-04-08T04:02:34;8.70;66.80
77277;DHT22;66330;52.166;9.978;2023-04-08T04:04:59;8.70;66.90
77277;DHT22;66330;52.166;9.978;2023-04-08T04:07:25;8.70;66.80
77277;DHT22;66330;52.166;9.978;2023-04-08T04:09:50;8.70;67.20
77277;DHT22;66330;52.166;9.978;2023-04-08T04:12:18;8.70;67.20
77277;DHT22;66330;52.166;9.978;2023-04-08T04:14:44;8.70;67.20
77277;DHT22;66330;52.166;9.978;2023-04-08T04:17:09;8.70;66.80
77277;DHT22;66330;52.166;9.978;2023-04-08T04:19:35;8.70;66.50
77277;DHT22;66330;52.166;9.978;2023-04-08T04:22:01;8.70;66.80
77277;DHT22;66330;52.166;9.978;2023-04-08T04:24:26;8.80;67.50
77277;DHT22;66330;52.166;9.978;2023-04-08T04:26:52;9.20;68.10
77277;DHT22;66330;52.166;9.978;2023-04-08T04:29:17;8.70;67.70
77277;DHT22;66330;52.166;9.978;2023-04-08T04:31:43;8.70;67.70
77277;DHT22;66330;52.166;9.978;2023-04-08T04:34:08;8.70;67.00
77277;DHT22;66330;52.166;9.978;2023-04-08T04:36:34;8.60;66.90
77277;DHT22;66330;52.166;9.978;2023-04-08T04:38:59;8.60;67.90
77277;DHT22;66330;52.166;9.978;2023-04-08T04:41:25;8.60;68.10
77277;DHT22;66330;52.166;9.978;2023-04-08T04:43:51;8.60;68.10
77277;DHT22;66330;52.166;9.978;2023-04-08T04:46:17;8.60;68.20
77277;DHT22;66330;52.166;9.978;2023-04-08T04:48:42;8.90;68.40
77277;DHT22;66330;52.166;9.978;2023-04-08T04:51:08;8.60;68.60
77277;DHT22;66330;52.166;9.978;2023-04-08T04:53:34;8.50;68.50
77277;DHT22;66330;52.166;9.978;2023-04-08T04:55:59;8.50;68.60
77277;DHT22;66330;52.166;9.978;2023-04-08T04:58:28;8.50;68.40
77277;DHT22;66330;52.166;9.978;2023-04-08T05:00:55;8.50;68.90
77277;DHT22;66330;52.166;9.978;2023-04-08T05:03:21;8.50;69.00
77277;DHT22;66330;52.166;9.978;2023-04-08T05:05:50;8.50;69.10
77277;DHT22;66330;52.166;9.978;2023-04-08T05:08:16;8.40;68.50
77277;DHT22;66330;52.166;9.978;2023-04-08T05:10:42;8.40;69.30
77277;DHT22;66330;52.166;9.978;2023-04-08T05:13:07;8.30;69.40
77277;DHT22;66330;52.166;9.978;2023-04-08T05:15:33;8.30;69.60
77277;DHT22;66330;52.166;9.978;2023-04-08T05:17:58;8.50;70.00
77277;DHT22;66330;52.166;9.978;2023-04-08T05:20:24;8.20;69.60
77277;DHT22;66330;52.166;9.978;2023-04-08T05:22:50;8.00;69.60
77277;DHT22;66330;52.166;9.978;2023-04-08T05:25:15;8.30;69.80
77277;DHT22;66330;52.166;9.978;2023-04-08T05:27:41;8.20;69.60
77277;DHT22;66330;52.166;9.978;2023-04-08T05:30:07;8.20;70.30
77277;DHT22;66330;52.166;9.978;2023-04-08T05:32:33;8.20;70.60
77277;DHT22;66330;52.166;9.978;2023-04-08T05:35:02;8.20;70.50
77277;DHT22;66330;52.166;9.978;2023-04-08T05:37:27;8.30;70.70
77277;DHT22;66330;52.166;9.978;2023-04-08T05:39:53;8.20;70.60
77277;DHT22;66330;52.166;9.978;2023-04-08T05:42:19;8.20;70.70
77277;DHT22;66330;52.166;9.978;2023-04-08T05:44:44;8.30;70.70
77277;DHT22;66330;52.166;9.978;2023-04-08T05:47:10;8.50;70.00
77277;DHT22;66330;52.166;9.978;2023-04-08T05:49:35;8.30;70.30
77277;DHT22;66330;52.166;9.978;2023-04-08T05:52:01;8.80;71.40
77277;DHT22;66330;52.166;9.978;2023-04-08T05:54:28;8.40;70.10
77277;DHT22;66330;52.166;9.978;2023-04-08T05:56:53;8.40;70.80
77277;DHT22;66330;52.166;9.978;2023-04-08T05:59:19;8.80;71.20
77277;DHT22;66330;52.166;9.978;2023-04-08T06:01:44;8.50;70.70
77277;DHT22;66330;52.166;9.978;2023-04-08T06:04:10;8.50;70.70
77277;DHT22;66330;52.166;9.978;2023-04-08T06:06:38;8.50;70.60
77277;DHT22;66330;52.166;9.978;2023-04-08T06:09:05;8.50;70.10
77277;DHT22;66330;52.166;9.978;2023-04-08T06:11:30;8.60;70.30
77277;DHT22;66330;52.166;9.978;2023-04-08T06:13:56;8.60;70.90
77277;DHT22;66330;52.166;9.978;2023-04-08T06:16:21;8.60;70.80
77277;DHT22;66330;52.166;9.978;2023-04-08T06:18:47;8.60;70.40
77277;DHT22;66330;52.166;9.978;2023-04-08T06:21:12;8.70;70.60
77277;DHT22;66330;52.166;9.978;2023-04-08T06:23:38;8.70;70.60
77277;DHT22;66330;52.166;9.978;2023-04-08T06:26:04;8.80;70.60
77277;DHT22;66330;52.166;9.978;2023-04-08T06:28:29;8.80;70.30
77277;DHT22;66330;52.166;9.978;2023-04-08T06:30:55;8.80;70.20
77277;DHT22;66330;52.166;9.978;2023-04-08T06:33:21;8.90;70.00
77277;DHT22;66330;52.166;9.978;2023-04-08T06:35:47;8.90;70.20
77277;DHT22;66330;52.166;9.978;2023-04-08T06:38:12;9.60;70.90
77277;DHT22;66330;52.166;9.978;2023-04-08T06:40:38;9.00;70.30
77277;DHT22;66330;52.166;9.978;2023-04-08T06:43:04;9.00;70.00
77277;DHT22;66330;52.166;9.978;2023-04-08T06:45:32;8.90;69.80
77277;DHT22;66330;52.166;9.978;2023-04-08T06:47:57;8.90;69.60
77277;DHT22;66330;52.166;9.978;2023-04-08T06:50:23;8.90;69.70
77277;DHT22;66330;52.166;9.978;2023-04-08T06:52:48;9.00;69.70
77277;DHT22;66330;52.166;9.978;2023-04-08T06:55:14;8.90;69.90
77277;DHT22;66330;52.166;9.978;2023-04-08T06:57:40;8.90;69.90
77277;DHT22;66330;52.166;9.978;2023-04-08T07:00:06;8.90;69.90
77277;DHT22;66330;52.166;9.978;2023-04-08T07:02:32;8.90;69.20
77277;DHT22;66330;52.166;9.978;2023-04-08T07:04:57;9.00;70.00
77277;DHT22;66330;52.166;9.978;2023-04-08T07:07:23;9.20;70.20
77277;DHT22;66330;52.166;9.978;2023-04-08T07:09:49;9.00;70.00
77277;DHT22;66330;52.166;9.978;2023-04-08T07:12:15;9.00;70.00
77277;DHT22;66330;52.166;9.978;2023-04-08T07:14:41;9.00;70.00
77277;DHT22;66330;52.166;9.978;2023-04-08T07:17:06;9.10;70.00
77277;DHT22;66330;52.166;9.978;2023-04-08T07:19:32;9.10;69.50
77277;DHT22;66330;52.166;9.978;2023-04-08T07:21:58;9.10;69.80
77277;DHT22;66330;52.166;9.978;2023-04-08T07:24:23;9.20;70.00
77277;DHT22;66330;52.166;9.978;2023-04-08T07:26:49;9.10;69.20
77277;DHT22;66330;52.166;9.978;2023-04-08T07:29:14;9.20;69.00
77277;DHT22;66330;52.166;9.978;2023-04-08T07:31:42;9.40;70.00
77277;DHT22;66330;52.166;9.978;2023-04-08T07:34:07;9.20;69.70
77277;DHT22;66330;52.166;9.978;2023-04-08T07:36:33;9.20;69.70
77277;DHT22;66330;52.166;9.978;2023-04-08T07:38:58;9.20;69.50
77277;DHT22;66330;52.166;9.978;2023-04-08T07:41:24;9.20;69.80
77277;DHT22;66330;52.166;9.978;2023-04-08T07:43:49;9.30;69.70
77277;DHT22;66330;52.166;9.978;2023-04-08T07:46:15;9.30;69.90
77277;DHT22;66330;52.166;9.978;2023-04-08T07:48:40;9.30;69.80
77277;DHT22;66330;52.166;9.978;2023-04-08T07:51:07;9.40;69.40
77277;DHT22;66330;52.166;9.978;2023-04-08T07:53:33;9.50;69.50
77277;DHT22;66330;52.166;9.978;2023-04-08T07:55:59;9.50;69.40
77277;DHT22;66330;52.166;9.978;2023-04-08T07:58:25;9.50;69.20
77277;DHT22;66330;52.166;9.978;2023-04-08T08:00:51;9.50;69.30
77277;DHT22;66330;52.166;9.978;2023-04-08T08:03:17;9.70;69.50
77277;DHT22;66330;52.166;9.978;2023-04-08T08:05:42;9.70;69.30
77277;DHT22;66330;52.166;9.978;2023-04-08T08:08:08;9.70;69.30
77277;DHT22;66330;52.166;9.978;2023-04-08T08:10:37;9.80;69.20
77277;DHT22;66330;52.166;9.978;2023-04-08T08:13:03;9.80;69.20
77277;DHT22;66330;52.166;9.978;2023-04-08T08:15:29;9.90;68.70
77277;DHT22;66330;52.166;9.978;2023-04-08T08:17:54;10.00;68.00
77277;DHT22;66330;52.166;9.978;2023-04-08T08:20:20;10.00;67.70
77277;DHT22;66330;52.166;9.978;2023-04-08T08:22:45;10.00;67.50
77277;DHT22;66330;52.166;9.978;2023-04-08T08:25:11;10.10;67.40
77277;DHT22;66330;52.166;9.978;2023-04-08T08:27:37;10.10;67.30
77277;DHT22;66330;52.166;9.978;2023-04-08T08:30:04;10.10;66.80
77277;DHT22;66330;52.166;9.978;2023-04-08T08:32:30;10.10;66.90
77277;DHT22;66330;52.166;9.978;2023-04-08T08:34:56;10.10;66.80
77277;DHT22;66330;52.166;9.978;2023-04-08T08:37:21;10.10;66.60
77277;DHT22;66330;52.166;9.978;2023-04-08T08:39:47;10.10;66.80
77277;DHT22;66330;52.166;9.978;2023-04-08T08:42:22;10.10;66.80
77277;DHT22;66330;52.166;9.978;2023-04-08T08:44:48;10.10;66.50
77277;DHT22;66330;52.166;9.978;2023-04-08T08:47:15;10.60;67.20
77277;DHT22;66330;52.166;9.978;2023-04-08T08:49:41;10.20;66.90
77277;DHT22;66330;52.166;9.978;2023-04-08T08:52:07;10.30;66.70
77277;DHT22;66330;52.166;9.978;2023-04-08T08:54:32;10.40;67.20
77277;DHT22;66330;52.166;9.978;2023-04-08T08:56:58;10.60;67.10
77277;DHT22;66330;52.166;9.978;2023-04-08T08:59:24;10.50;65.60
77277;DHT22;66330;52.166;9.978;2023-04-08T09:01:49;10.60;66.40
77277;DHT22;66330;52.166;9.978;2023-04-08T09:04:20;10.60;66.30
77277;DHT22;66330;52.166;9.978;2023-04-08T09:06:47;10.60;66.00
77277;DHT22;66330;52.166;9.978;2023-04-08T09:09:14;10.70;66.20
77277;DHT22;66330;52.166;9.978;2023-04-08T09:11:45;10.80;66.20
77277;DHT22;66330;52.166;9.978;2023-04-08T09:14:21;10.80;65.60
77277;DHT22;66330;52.166;9.978;2023-04-08T09:16:47;10.90;65.70
77277;DHT22;66330;52.166;9.978;2023-04-08T09:19:13;11.20;65.50
77277;DHT22;66330;52.166;9.978;2023-04-08T09:21:39;10.80;65.20
77277;DHT22;66330;52.166;9.978;2023-04-08T09:24:08;10.80;65.10
77277;DHT22;66330;52.166;9.978;2023-04-08T09:26:35;11.10;65.30
77277;DHT22;66330;52.166;9.978;2023-04-08T09:29:08;10.80;64.60
77277;DHT22;66330;52.166;9.978;2023-04-08T09:31:38;10.80;64.60
77277;DHT22;66330;52.166;9.978;2023-04-08T09:34:14;10.80;64.50
77277;DHT22;66330;52.166;9.978;2023-04-08T09:36:41;10.70;65.00
77277;DHT22;66330;52.166;9.978;2023-04-08T09:39:06;10.70;64.80
77277;DHT22;66330;52.166;9.978;2023-04-08T09:41:36;10.70;65.10
77277;DHT22;66330;52.166;9.978;2023-04-08T09:44:04;10.70;65.00
77277;DHT22;66330;52.166;9.978;2023-04-08T09:46:35;10.60;64.30
77277;DHT22;66330;52.166;9.978;2023-04-08T09:49:12;10.60;64.30
77277;DHT22;66330;52.166;9.978;2023-04-08T09:51:49;10.60;65.30
77277;DHT22;66330;52.166;9.978;2023-04-08T09:54:20;11.00;65.20
77277;DHT22;66330;52.166;9.978;2023-04-08T09:56:53;10.60;65.10
77277;DHT22;66330;52.166;9.978;2023-04-08T09:59:21;10.60;65.50
77277;DHT22;66330;52.166;9.978;2023-04-08T10:01:53;10.60;65.40
77277;DHT22;66330;52.166;9.978;2023-04-08T10:04:22;10.60;64.70
77277;DHT22;66330;52.166;9.978;2023-04-08T10:06:53;10.70;65.50
77277;DHT22;66330;52.166;9.978;2023-04-08T10:09:22;10.70;65.20
77277;DHT22;66330;52.166;9.978;2023-04-08T10:11:48;10.80;65.40
77277;DHT22;66330;52.166;9.978;2023-04-08T10:14:14;10.80;65.00
77277;DHT22;66330;52.166;9.978;2023-04-08T10:16:39;10.90;64.90
77277;DHT22;66330;52.166;9.978;2023-04-08T10:19:39;10.90;65.20
77277;DHT22;66330;52.166;9.978;2023-04-08T10:27:42;10.80;64.00
77277;DHT22;66330;52.166;9.978;2023-04-08T10:32:55;10.90;65.00
77277;DHT22;66330;52.166;9.978;2023-04-08T10:35:33;10.90;64.30
77277;DHT22;66330;52.166;9.978;2023-04-08T10:38:00;11.00;64.40
77277;DHT22;66330;52.166;9.978;2023-04-08T10:40:26;11.10;64.50
77277;DHT22;66330;52.166;9.978;2023-04-08T10:42:55;11.20;64.90
77277;DHT22;66330;52.166;9.978;2023-04-08T10:45:21;11.30;64.40
77277;DHT22;66330;52.166;9.978;2023-04-08T10:47:46;11.40;64.50
77277;DHT22;66330;52.166;9.978;2023-04-08T10:50:14;11.40;64.20
77277;DHT22;66330;52.166;9.978;2023-04-08T10:52:50;11.50;63.90
77277;DHT22;66330;52.166;9.978;2023-04-08T10:55:24;11.30;63.60
77277;DHT22;66330;52.166;9.978;2023-04-08T10:57:50;11.30;63.80
77277;DHT22;66330;52.166;9.978;2023-04-08T11:00:37;11.40;63.70
77277;DHT22;66330;52.166;9.978;2023-04-08T11:03:05;11.40;63.80
77277;DHT22;66330;52.166;9.978;2023-04-08T11:05:31;11.50;63.40
77277;DHT22;66330;52.166;9.978;2023-04-08T11:07:58;11.20;63.80
77277;DHT22;66330;52.166;9.978;2023-04-08T11:10:25;11.20;64.10
77277;DHT22;66330;52.166;9.978;2023-04-08T11:12:53;11.10;63.70
77277;DHT22;66330;52.166;9.978;2023-04-08T11:15:18;11.10;64.10
77277;DHT22;66330;52.166;9.978;2023-04-08T11:17:44;11.00;64.90
77277;DHT22;66330;52.166;9.978;2023-04-08T11:20:11;11.00;65.20
77277;DHT22;66330;52.166;9.978;2023-04-08T11:22:38;10.90;65.30
77277;DHT22;66330;52.166;9.978;2023-04-08T11:25:05;10.90;65.50
77277;DHT22;66330;52.166;9.978;2023-04-08T11:27:33;10.80;64.90
77277;DHT22;66330;52.166;9.978;2023-04-08T11:30:00;10.80;65.70
77277;DHT22;66330;52.166;9.978;2023-04-08T11:32:26;10.70;66.00
77277;DHT22;66330;52.166;9.978;2023-04-08T11:34:53;10.70;66.40
77277;DHT22;66330;52.166;9.978;2023-04-08T11:37:19;10.70;65.80
77277;DHT22;66330;52.166;9.978;2023-04-08T11:39:45;10.70;66.50
77277;DHT22;66330;52.166;9.978;2023-04-08T11:42:27;10.70;66.80
77277;DHT22;66330;52.166;9.978;2023-04-08T11:44:53;10.70;67.00
77277;DHT22;66330;52.166;9.978;2023-04-08T11:47:18;10.70;67.10
77277;DHT22;66330;52.166;9.978;2023-04-08T11:49:45;10.60;67.10
77277;DHT22;66330;52.166;9.978;2023-04-08T11:52:11;10.50;66.90
77277;DHT22;66330;52.166;9.978;2023-04-08T11:54:41;10.70;67.30
77277;DHT22;66330;52.166;9.978;2023-04-08T11:57:08;10.70;67.50
77277;DHT22;66330;52.166;9.978;2023-04-08T11:59:35;10.80;67.20
77277;DHT22;66330;52.166;9.978;2023-04-08T12:02:02;10.90;67.40
77277;DHT22;66330;52.166;9.978;2023-04-08T12:04:27;10.90;66.70
77277;DHT22;66330;52.166;9.978;2023-04-08T12:06:54;10.90;67.40
77277;DHT22;66330;52.166;9.978;2023-04-08T12:09:20;11.00;67.30
77277;DHT22;66330;52.166;9.978;2023-04-08T12:11:45;11.10;67.30
77277;DHT22;66330;52.166;9.978;2023-04-08T12:14:11;10.90;66.40
77277;DHT22;66330;52.166;9.978;2023-04-08T12:16:36;11.10;66.40
77277;DHT22;66330;52.166;9.978;2023-04-08T12:19:02;11.10;67.00
77277;DHT22;66330;52.166;9.978;2023-04-08T12:21:28;11.10;67.00
77277;DHT22;66330;52.166;9.978;2023-04-08T12:23:53;11.10;66.60
77277;DHT22;66330;52.166;9.978;2023-04-08T12:26:19;11.40;67.30
77277;DHT22;66330;52.166;9.978;2023-04-08T12:28:45;11.00;67.70
77277;DHT22;66330;52.166;9.978;2023-04-08T12:31:11;11.00;66.50
77277;DHT22;66330;52.166;9.978;2023-04-08T12:33:36;11.00;67.20
77277;DHT22;66330;52.166;9.978;2023-04-08T12:36:02;11.00;66.80
77277;DHT22;66330;52.166;9.978;2023-04-08T12:38:28;11.10;67.70
77277;DHT22;66330;52.166;9.978;2023-04-08T12:40:54;11.10;66.70
77277;DHT22;66330;52.166;9.978;2023-04-08T12:43:20;11.20;67.60
77277;DHT22;66330;52.166;9.978;2023-04-08T12:45:46;11.20;67.10
77277;DHT22;66330;52.166;9.978;2023-04-08T12:48:13;11.30;67.60
77277;DHT22;66330;52.166;9.978;2023-04-08T12:50:38;11.30;67.70
77277;DHT22;66330;52.166;9.978;2023-04-08T12:53:04;11.20;67.50
77277;DHT22;66330;52.166;9.978;2023-04-08T12:55:29;11.40;67.40
77277;DHT22;66330;52.166;9.978;2023-04-08T12:57:55;11.50;67.50
77277;DHT22;66330;52.166;9.978;2023-04-08T13:00:21;11.70;67.30
77277;DHT22;66330;52.166;9.978;2023-04-08T13:02:46;11.70;66.90
77277;DHT22;66330;52.166;9.978;2023-04-08T13:05:12;11.70;66.10
77277;DHT22;66330;52.166;9.978;2023-04-08T13:07:38;11.70;66.50
77277;DHT22;66330;52.166;9.978;2023-04-08T13:10:04;11.60;65.60
77277;DHT22;66330;52.166;9.978;2023-04-08T13:12:31;12.30;66.40
77277;DHT22;66330;52.166;9.978;2023-04-08T13:14:57;11.90;65.70
77277;DHT22;66330;52.166;9.978;2023-04-08T13:17:23;12.00;65.30
77277;DHT22;66330;52.166;9.978;2023-04-08T13:19:48;12.00;65.30
77277;DHT22;66330;52.166;9.978;2023-04-08T13:22:15;12.00;65.20
77277;DHT22;66330;52.166;9.978;2023-04-08T13:24:40;12.20;65.10
77277;DHT22;66330;52.166;9.978;2023-04-08T13:27:06;12.10;64.50
77277;DHT22;66330;52.166;9.978;2023-04-08T13:29:32;12.00;64.20
77277;DHT22;66330;52.166;9.978;2023-04-08T13:31:58;12.00;64.70
77277;DHT22;66330;52.166;9.978;2023-04-08T13:34:23;12.00;64.30
77277;DHT22;66330;52.166;9.978;2023-04-08T13:36:49;12.00;64.50
77277;DHT22;66330;52.166;9.978;2023-04-08T13:39:14;12.10;64.30
77277;DHT22;66330;52.166;9.978;2023-04-08T13:41:40;12.10;64.30
77277;DHT22;66330;52.166;9.978;2023-04-08T13:44:05;12.10;64.10
77277;DHT22;66330;52.166;9.978;2023-04-08T13:46:31;12.10;63.70
77277;DHT22;66330;52.166;9.978;2023-04-08T13:48:57;12.10;63.70
77277;DHT22;66330;52.166;9.978;2023-04-08T13:51:22;12.10;63.90
77277;DHT22;66330;52.166;9.978;2023-04-08T13:53:48;12.10;63.80
77277;DHT22;66330;52.166;9.978;2023-04-08T13:56:13;12.10;63.80
77277;DHT22;66330;52.166;9.978;2023-04-08T13:58:39;12.10;63.30
77277;DHT22;66330;52.166;9.978;2023-04-08T14:01:05;12.20;63.30
77277;DHT22;66330;52.166;9.978;2023-04-08T14:03:31;12.30;63.80
77277;DHT22;66330;52.166;9.978;2023-04-08T14:05:56;12.30;62.80
77277;DHT22;66330;52.166;9.978;2023-04-08T14:08:22;12.20;63.00
77277;DHT22;66330;52.166;9.978;2023-04-08T14:10:55;12.30;62.80
77277;DHT22;66330;52.166;9.978;2023-04-08T14:13:21;12.80;63.50
77277;DHT22;66330;52.166;9.978;2023-04-08T14:15:46;12.40;62.40
77277;DHT22;66330;52.166;9.978;2023-04-08T14:18:12;12.40;62.50
77277;DHT22;66330;52.166;9.978;2023-04-08T14:20:38;12.40;63.20
77277;DHT22;66330;52.166;9.978;2023-04-08T14:23:03;12.40;62.00
77277;DHT22;66330;52.166;9.978;2023-04-08T14:25:29;12.40;61.60
77277;DHT22;66330;52.166;9.978;2023-04-08T14:27:55;12.40;61.30
77277;DHT22;66330;52.166;9.978;2023-04-08T14:30:21;12.40;61.30
77277;DHT22;66330;52.166;9.978;2023-04-08T14:32:47;12.40;61.40
77277;DHT22;66330;52.166;9.978;2023-04-08T14:35:12;12.50;61.70
77277;DHT22;66330;52.166;9.978;2023-04-08T14:37:38;12.30;61.00
77277;DHT22;66330;52.166;9.978;2023-04-08T14:40:04;12.30;61.10
77277;DHT22;66330;52.166;9.978;2023-04-08T14:42:29;12.80;61.80
77277;DHT22;66330;52.166;9.978;2023-04-08T14:44:55;12.30;61.60
77277;DHT22;66330;52.166;9.978;2023-04-08T14:47:22;12.20;61.00
77277;DHT22;66330;52.166;9.978;2023-04-08T14:49:48;12.20;61.30
77277;DHT22;66330;52.166;9.978;2023-04-08T14:52:13;12.20;61.80
77277;DHT22;66330;52.166;9.978;2023-04-08T14:54:39;12.20;61.70
77277;DHT22;66330;52.166;9.978;2023-04-08T14:57:05;12.20;61.70
77277;DHT22;66330;52.166;9.978;2023-04-08T14:59:31;12.10;61.60
77277;DHT22;66330;52.166;9.978;2023-04-08T15:01:57;12.10;61.80
77277;DHT22;66330;52.166;9.978;2023-04-08T15:04:23;12.60;62.30
77277;DHT22;66330;52.166;9.978;2023-04-08T15:06:48;12.20;61.10
77277;DHT22;66330;52.166;9.978;2023-04-08T15:09:14;12.10;61.00
77277;DHT22;66330;52.166;9.978;2023-04-08T15:11:39;12.10;61.20
77277;DHT22;66330;52.166;9.978;2023-04-08T15:14:05;12.10;62.20
77277;DHT22;66330;52.166;9.978;2023-04-08T15:16:31;12.10;61.40
77277;DHT22;66330;52.166;9.978;2023-04-08T15:18:56;12.10;61.00
77277;DHT22;66330;52.166;9.978;2023-04-08T15:21:24;12.00;61.00
77277;DHT22;66330;52.166;9.978;2023-04-08T15:23:51;12.00;61.60
77277;DHT22;66330;52.166;9.978;2023-04-08T15:26:17;11.90;61.50
77277;DHT22;66330;52.166;9.978;2023-04-08T15:28:42;11.90;61.50
77277;DHT22;66330;52.166;9.978;2023-04-08T15:31:08;11.90;61.60
77277;DHT22;66330;52.166;9.978;2023-04-08T15:33:33;11.90;61.60
77277;DHT22;66330;52.166;9.978;2023-04-08T15:35:59;11.90;61.40
77277;DHT22;66330;52.166;9.978;2023-04-08T15:38:29;11.80;61.50
77277;DHT22;66330;52.166;9.978;2023-04-08T15:40:55;11.80;61.70
77277;DHT22;66330;52.166;9.978;2023-04-08T15:43:20;11.70;61.70
77277;DHT22;66330;52.166;9.978;2023-04-08T15:45:46;11.70;61.30
77277;DHT22;66330;52.166;9.978;2023-04-08T15:48:12;11.70;61.20